Time;durP1;ratioP1;P1;durP2;ratioP2;P2;SDS_P1;SDS_P2;PMS_P1;PMS_P2;Temp;Humidity;BMP_temperature;BMP_pressure;BME280_temperature;BME280_humidity;BME280_pressure;Samples;Min_cycle;Max_cycle;Signal;HPM_P1;HPM_P2
2023/02/08 00:02:17;;;;;;;11.33;1.90;;;26.40;64.20;;;;;;5069291;28;20269;-70
2023/02/08 00:04:45;;;;;;;8.10;1.63;;;26.50;63.90;;;;;;5069141;28;21413;-71
2023/02/08 00:07:12;;;;;;;6.20;1.80;;;26.70;64.30;;;;;;5063757;28;20216;-70
2023/02/08 00:09:39;;;;;;;12.07;1.90;;;26.80;63.10;;;;;;5065936;28;20281;-67
2023/02/08 00:12:07;;;;;;;6.83;1.70;;;26.90;62.50;;;;;;5069205;28;20257;-67
2023/02/08 00:14:35;;;;;;;10.87;2.10;;;26.90;61.90;;;;;;5063925;28;20199;-69
2023/02/08 00:17:03;;;;;;;10.93;2.50;;;27.00;61.60;;;;;;5064246;28;20248;-69
2023/02/08 00:19:30;;;;;;;6.53;2.10;;;27.10;61.40;;;;;;5067965;28;20179;-68
2023/02/08 00:21:57;;;;;;;5.17;1.57;;;27.20;61.60;;;;;;5066794;28;20598;-68
2023/02/08 00:24:24;;;;;;;10.03;2.73;;;27.20;61.80;;;;;;5065404;28;20191;-69
2023/02/08 00:26:52;;;;;;;11.63;2.17;;;27.20;61.10;;;;;;5068396;28;20201;-68
2023/02/08 00:29:20;;;;;;;8.77;2.47;;;27.10;63.10;;;;;;5069773;28;20187;-68
2023/02/08 00:31:47;;;;;;;5.73;2.00;;;26.70;67.20;;;;;;5068205;28;20187;-68
2023/02/08 00:34:15;;;;;;;13.03;2.33;;;26.60;68.10;;;;;;5066303;28;20186;-68
2023/02/08 00:36:42;;;;;;;10.17;3.73;;;26.30;69.10;;;;;;5073537;28;20337;-69
2023/02/08 00:39:09;;;;;;;9.77;3.23;;;26.20;69.60;;;;;;5068846;28;20228;-69
2023/02/08 00:41:36;;;;;;;9.17;2.80;;;26.10;70.30;;;;;;5071769;28;20266;-71
2023/02/08 00:44:04;;;;;;;6.67;1.90;;;25.90;71.00;;;;;;5073294;28;20183;-69
2023/02/08 00:46:31;;;;;;;5.60;1.77;;;25.70;71.30;;;;;;5073327;28;20187;-70
2023/02/08 00:48:59;;;;;;;8.33;2.03;;;25.40;72.00;;;;;;5072121;28;20194;-70
2023/02/08 00:51:26;;;;;;;6.67;1.83;;;25.30;72.70;;;;;;5072501;28;20182;-70
2023/02/08 00:53:53;;;;;;;6.00;1.93;;;25.10;73.20;;;;;;5073716;28;20195;-67
2023/02/08 00:56:21;;;;;;;10.23;2.00;;;25.10;73.20;;;;;;5074342;28;20678;-69
2023/02/08 00:58:48;;;;;;;8.80;2.10;;;25.10;73.30;;;;;;5067920;28;20187;-69
2023/02/08 01:01:15;;;;;;;6.67;2.00;;;25.00;73.50;;;;;;5069533;28;20230;-70
2023/02/08 01:03:43;;;;;;;7.00;1.50;;;25.20;72.70;;;;;;5069962;28;20198;-72
2023/02/08 01:06:15;;;;;;;8.63;2.23;;;25.80;71.50;;;;;;5072571;28;20193;-70
2023/02/08 01:08:43;;;;;;;3.87;1.47;;;26.60;69.00;;;;;;5070621;28;20190;-71
2023/02/08 01:11:16;;;;;;;7.03;1.63;;;27.30;67.60;;;;;;5071808;28;20203;-72
2023/02/08 01:13:44;;;;;;;10.40;2.10;;;27.80;65.40;;;;;;5065001;28;20183;-70
2023/02/08 01:16:19;;;;;;;4.53;1.87;;;28.20;63.90;;;;;;5067196;28;20219;-70
2023/02/08 01:18:50;;;;;;;9.40;2.13;;;28.00;63.10;;;;;;5071502;28;20269;-70
2023/02/08 01:21:20;;;;;;;5.90;2.00;;;27.80;63.70;;;;;;5069645;28;20187;-71
2023/02/08 01:23:48;;;;;;;7.73;2.03;;;27.40;64.80;;;;;;5073086;28;20270;-72
2023/02/08 01:26:19;;;;;;;5.77;1.73;;;27.40;64.60;;;;;;5073696;28;20592;-70
2023/02/08 01:28:47;;;;;;;9.83;2.37;;;27.50;64.80;;;;;;5074133;28;20187;-71
2023/02/08 01:31:20;;;;;;;9.63;1.97;;;27.00;66.20;;;;;;5073712;28;20268;-71
2023/02/08 01:33:48;;;;;;;4.50;2.00;;;27.40;66.30;;;;;;5073198;28;20190;-71
2023/02/08 01:36:16;;;;;;;6.37;1.77;;;27.70;65.30;;;;;;5072760;28;20566;-71
2023/02/08 01:38:44;;;;;;;9.43;1.83;;;28.20;64.70;;;;;;5072707;28;20172;-69
2023/02/08 01:41:25;;;;;;;20.43;3.33;;;28.40;63.10;;;;;;5072807;28;20217;-70
2023/02/08 01:44:10;;;;;;;6.37;1.90;;;28.30;62.80;;;;;;5070536;28;20182;-70
2023/02/08 01:46:40;;;;;;;10.40;2.43;;;28.00;63.40;;;;;;5071098;28;20187;-69
2023/02/08 01:49:22;;;;;;;6.60;1.83;;;28.10;63.80;;;;;;5073727;28;20179;-71
2023/02/08 01:52:00;;;;;;;9.53;1.80;;;28.10;63.40;;;;;;5072438;28;20272;-71
2023/02/08 01:54:31;;;;;;;10.67;2.27;;;28.30;63.90;;;;;;5073440;28;20219;-71
2023/02/08 01:56:58;;;;;;;13.27;2.80;;;28.10;63.30;;;;;;5073456;28;20183;-71
2023/02/08 01:59:47;;;;;;;7.77;2.17;;;27.80;64.00;;;;;;5070519;28;20555;-70
2023/02/08 02:02:18;;;;;;;6.30;1.60;;;28.00;60.90;;;;;;5069120;28;20218;-70
2023/02/08 02:04:46;;;;;;;9.17;2.10;;;28.30;58.60;;;;;;5068992;28;20634;-70
2023/02/08 02:07:14;;;;;;;6.87;2.17;;;28.60;61.10;;;;;;5071112;28;20183;-71
2023/02/08 02:10:17;;;;;;;13.63;2.47;;;28.90;61.00;;;;;;5071643;28;20179;-70
2023/02/08 02:12:47;;;;;;;5.07;1.50;;;29.20;61.20;;;;;;5072087;28;20566;-70
2023/02/08 02:15:14;;;;;;;6.80;1.30;;;29.30;54.70;;;;;;5072676;28;20207;-70
2023/02/08 02:17:42;;;;;;;6.90;1.83;;;29.10;55.40;;;;;;5071352;28;20255;-70
2023/02/08 02:20:36;;;;;;;9.63;1.70;;;29.80;54.60;;;;;;5069722;28;20288;-71
2023/02/08 02:24:03;;;;;;;6.23;1.70;;;30.00;56.20;;;;;;5069292;28;20588;-69
2023/02/08 02:27:06;;;;;;;4.33;1.40;;;30.50;51.50;;;;;;5057114;28;20737;-72
2023/02/08 02:30:04;;;;;;;6.90;1.20;;;30.00;52.90;;;;;;5071421;28;20527;-71
2023/02/08 02:32:42;;;;;;;7.23;1.67;;;29.90;53.60;;;;;;5071356;28;20532;-71
2023/02/08 02:35:16;;;;;;;6.70;1.63;;;29.90;54.70;;;;;;5069635;28;20673;-71
2023/02/08 02:38:01;;;;;;;8.87;1.80;;;29.60;55.00;;;;;;5069460;28;20693;-69
2023/02/08 02:40:54;;;;;;;4.67;1.40;;;29.10;55.70;;;;;;5070802;28;20197;-70
2023/02/08 02:43:41;;;;;;;5.67;1.10;;;28.90;55.70;;;;;;5063306;28;20284;-71
2023/02/08 02:46:26;;;;;;;3.70;1.20;;;29.30;52.80;;;;;;5070594;28;20195;-68
2023/02/08 02:49:08;;;;;;;5.67;1.30;;;28.50;55.30;;;;;;5068704;28;20229;-67
2023/02/08 02:51:45;;;;;;;6.47;1.47;;;28.30;57.00;;;;;;5066230;28;20172;-73
2023/02/08 02:54:34;;;;;;;8.57;1.50;;;28.80;56.50;;;;;;5069751;28;20179;-69
2023/02/08 02:57:05;;;;;;;6.77;1.23;;;29.20;54.60;;;;;;5070423;28;20248;-70
2023/02/08 02:59:34;;;;;;;5.97;1.47;;;29.90;52.90;;;;;;5071744;28;20183;-68
2023/02/08 03:02:03;;;;;;;5.90;1.40;;;30.70;51.40;;;;;;5070830;28;20175;-70
2023/02/08 03:04:33;;;;;;;4.57;1.45;;;30.60;51.30;;;;;;5068027;28;20637;-69
2023/02/08 03:07:37;;;;;;;5.38;2.10;;;30.20;51.90;;;;;;5070290;28;20209;-68
2023/02/08 03:10:25;;;;;;;3.93;1.40;;;30.20;52.30;;;;;;5066340;28;20255;-70
2023/02/08 03:13:10;;;;;;;3.50;1.23;;;29.90;51.70;;;;;;5071010;28;20178;-69
2023/02/08 03:15:43;;;;;;;6.90;1.58;;;30.50;51.70;;;;;;5071026;28;20230;-69
2023/02/08 03:18:35;;;;;;;7.40;1.60;;;30.10;52.30;;;;;;5065371;28;20649;-67
2023/02/08 03:21:09;;;;;;;4.83;1.80;;;29.70;53.70;;;;;;5069717;28;20191;-69
2023/02/08 03:23:55;;;;;;;4.77;1.33;;;29.30;54.70;;;;;;5064897;28;20176;-72
2023/02/08 03:26:28;;;;;;;8.50;2.20;;;29.20;54.00;;;;;;5069413;28;20207;-71
2023/02/08 03:29:14;;;;;;;5.27;1.20;;;29.70;53.70;;;;;;5066713;28;20184;-71
2023/02/08 03:31:59;;;;;;;5.85;1.38;;;29.80;53.20;;;;;;5061763;28;20197;-75
2023/02/08 03:34:52;;;;;;;6.72;1.58;;;29.80;53.80;;;;;;5068081;28;20175;-72
2023/02/08 03:37:59;;;;;;;5.40;1.50;;;28.80;56.10;;;;;;5066802;28;20775;-70
2023/02/08 03:40:41;;;;;;;8.47;1.90;;;28.60;57.30;;;;;;5029006;28;20270;-71
2023/02/08 03:43:31;;;;;;;10.33;2.37;;;28.10;62.90;;;;;;5023487;28;20180;-69
2023/02/08 03:46:05;;;;;;;10.30;2.50;;;27.40;66.40;;;;;;5055493;28;20187;-69
2023/02/08 03:48:35;;;;;;;6.60;1.60;;;27.20;67.10;;;;;;5069126;28;20269;-71
2023/02/08 03:51:04;;;;;;;7.80;2.10;;;26.80;68.30;;;;;;5064813;28;20236;-70
2023/02/08 03:53:37;;;;;;;7.03;1.63;;;26.50;69.10;;;;;;5062729;28;20305;-71
2023/02/08 03:56:13;;;;;;;8.57;1.93;;;26.40;69.80;;;;;;5070855;28;20214;-71
2023/02/08 03:58:55;;;;;;;5.90;2.43;;;26.30;70.40;;;;;;5063057;28;20183;-71
2023/02/08 04:01:43;;;;;;;10.73;1.77;;;26.30;70.50;;;;;;5066266;28;20653;-71
2023/02/08 04:04:15;;;;;;;7.60;1.47;;;26.30;70.70;;;;;;5070321;28;20175;-70
2023/02/08 04:06:42;;;;;;;7.00;2.00;;;26.70;69.20;;;;;;5067376;28;20172;-70
2023/02/08 04:09:10;;;;;;;10.93;1.60;;;26.60;69.80;;;;;;5068309;28;20182;-70
2023/02/08 04:11:37;;;;;;;4.03;1.30;;;26.70;69.20;;;;;;5069481;28;20191;-73
2023/02/08 04:14:04;;;;;;;6.87;1.90;;;26.60;68.90;;;;;;5068113;28;20257;-73
2023/02/08 04:16:31;;;;;;;7.53;2.00;;;26.60;69.80;;;;;;5071459;28;20268;-70
2023/02/08 04:18:59;;;;;;;10.87;2.20;;;26.90;69.10;;;;;;5069108;28;20574;-71
2023/02/08 04:21:27;;;;;;;7.47;1.83;;;26.90;68.30;;;;;;5070123;28;20175;-71
2023/02/08 04:23:54;;;;;;;8.07;2.00;;;26.90;67.20;;;;;;5068044;28;20193;-71
2023/02/08 04:26:21;;;;;;;9.57;2.23;;;27.00;67.40;;;;;;5065728;28;20206;-71
2023/02/08 04:28:49;;;;;;;7.83;2.00;;;27.70;65.80;;;;;;5070735;28;20611;-71
2023/02/08 04:31:16;;;;;;;8.80;2.20;;;27.80;65.90;;;;;;5070178;28;20231;-72
2023/02/08 04:33:43;;;;;;;13.47;2.50;;;27.70;65.80;;;;;;5069700;28;20658;-71
2023/02/08 04:36:11;;;;;;;9.17;1.87;;;27.80;65.60;;;;;;5065597;28;20701;-71
2023/02/08 04:38:38;;;;;;;7.03;2.00;;;27.80;65.30;;;;;;5065416;28;20256;-71
2023/02/08 04:41:05;;;;;;;6.13;2.33;;;27.80;66.40;;;;;;5066717;28;20194;-70
2023/02/08 04:43:33;;;;;;;8.90;1.80;;;28.00;65.20;;;;;;5064060;28;20183;-69
2023/02/08 04:46:00;;;;;;;9.93;1.80;;;28.60;63.10;;;;;;5070024;28;20181;-70
2023/02/08 04:48:27;;;;;;;7.47;1.70;;;28.90;63.40;;;;;;5072094;28;20187;-69
2023/02/08 04:50:57;;;;;;;5.93;1.60;;;29.10;62.20;;;;;;5066935;28;20266;-67
2023/02/08 04:53:25;;;;;;;4.57;1.53;;;29.00;61.80;;;;;;5066131;28;20245;-68
2023/02/08 04:55:53;;;;;;;7.73;1.60;;;28.30;64.00;;;;;;5062679;28;20667;-69
2023/02/08 04:58:20;;;;;;;7.07;2.17;;;28.30;62.60;;;;;;5065681;28;20179;-68
2023/02/08 05:00:48;;;;;;;8.80;1.67;;;28.10;63.60;;;;;;5065344;28;20230;-68
2023/02/08 05:03:15;;;;;;;10.13;2.27;;;28.50;62.60;;;;;;5069694;28;20187;-68
2023/02/08 05:05:42;;;;;;;8.53;2.13;;;28.10;64.90;;;;;;5075147;28;20225;-69
2023/02/08 05:08:10;;;;;;;5.70;1.73;;;27.70;65.90;;;;;;5069351;28;20191;-69
2023/02/08 05:10:37;;;;;;;8.50;1.70;;;27.50;65.60;;;;;;5068905;28;20191;-70
2023/02/08 05:13:04;;;;;;;8.33;1.60;;;27.80;63.90;;;;;;5068254;28;20179;-68
2023/02/08 05:15:32;;;;;;;7.60;1.70;;;27.80;64.60;;;;;;5069239;28;20314;-71
2023/02/08 05:17:59;;;;;;;8.37;2.27;;;27.30;65.80;;;;;;5070456;28;20197;-70
2023/02/08 05:20:27;;;;;;;6.47;1.53;;;27.20;66.10;;;;;;5069815;28;20179;-70
2023/02/08 05:22:54;;;;;;;9.20;1.70;;;27.40;64.70;;;;;;5074903;28;20187;-69
2023/02/08 05:25:21;;;;;;;7.43;1.83;;;27.30;64.50;;;;;;5072791;28;20704;-71
2023/02/08 05:27:49;;;;;;;6.30;2.03;;;27.10;65.80;;;;;;5074625;28;20642;-69
2023/02/08 05:30:16;;;;;;;7.27;2.00;;;26.80;66.40;;;;;;5072048;28;20642;-68
2023/02/08 05:32:44;;;;;;;4.97;1.60;;;26.50;68.00;;;;;;5071856;28;20203;-68
2023/02/08 05:35:11;;;;;;;7.03;2.00;;;26.50;67.50;;;;;;5073560;28;20246;-68
2023/02/08 05:37:38;;;;;;;5.53;1.70;;;26.80;66.60;;;;;;5074661;28;20201;-68
2023/02/08 05:40:06;;;;;;;7.37;1.80;;;26.60;66.40;;;;;;5073590;28;20187;-69
2023/02/08 05:42:33;;;;;;;7.17;1.80;;;26.60;67.40;;;;;;5070984;28;20179;-69
2023/02/08 05:45:01;;;;;;;9.93;1.87;;;26.40;69.20;;;;;;5073676;28;20179;-72
2023/02/08 05:47:28;;;;;;;7.23;2.07;;;26.10;70.90;;;;;;5068996;28;20191;-75
2023/02/08 05:49:55;;;;;;;11.17;2.03;;;26.00;71.30;;;;;;5071350;28;20175;-70
2023/02/08 05:52:22;;;;;;;8.73;2.07;;;25.90;72.30;;;;;;5064822;28;20341;-71
2023/02/08 05:54:50;;;;;;;7.33;1.90;;;26.00;72.60;;;;;;5068720;28;20823;-71
2023/02/08 05:57:17;;;;;;;7.83;1.90;;;26.10;71.70;;;;;;5073039;28;20226;-72
2023/02/08 05:59:44;;;;;;;6.83;1.73;;;26.40;70.00;;;;;;5074106;28;20525;-70
2023/02/08 06:02:12;;;;;;;7.67;1.60;;;26.40;69.40;;;;;;5066911;28;20580;-70
2023/02/08 06:04:39;;;;;;;9.20;2.07;;;26.30;69.70;;;;;;5069239;28;20188;-71
2023/02/08 06:07:06;;;;;;;7.50;1.80;;;26.30;70.70;;;;;;5070436;28;20677;-71
2023/02/08 06:09:34;;;;;;;8.80;1.97;;;26.30;70.90;;;;;;5070462;28;20313;-73
2023/02/08 06:12:01;;;;;;;9.63;2.40;;;25.90;71.20;;;;;;5069079;28;20709;-70
2023/02/08 06:14:28;;;;;;;8.17;1.77;;;25.70;72.00;;;;;;5070590;28;20192;-70
2023/02/08 06:16:56;;;;;;;5.63;1.50;;;25.90;70.90;;;;;;5065880;28;20183;-72
2023/02/08 06:19:24;;;;;;;6.20;1.50;;;26.20;70.20;;;;;;5069950;28;20658;-72
2023/02/08 06:21:51;;;;;;;8.57;1.83;;;26.20;69.40;;;;;;5071567;28;20182;-71
2023/02/08 06:24:18;;;;;;;9.83;1.83;;;26.20;69.10;;;;;;5071335;28;20192;-72
2023/02/08 06:26:46;;;;;;;5.27;1.50;;;26.00;69.20;;;;;;5072828;28;20202;-72
2023/02/08 06:29:13;;;;;;;8.80;1.70;;;26.00;68.60;;;;;;5068582;28;20195;-72
2023/02/08 06:31:40;;;;;;;6.40;2.40;;;25.80;68.10;;;;;;5072554;28;20190;-71
2023/02/08 06:34:08;;;;;;;5.80;1.57;;;25.70;68.40;;;;;;5072071;28;20187;-71
2023/02/08 06:36:35;;;;;;;7.70;1.67;;;25.60;70.10;;;;;;5072723;28;20207;-72
2023/02/08 06:39:02;;;;;;;5.90;2.20;;;25.30;72.70;;;;;;5066068;28;20213;-68
2023/02/08 06:41:30;;;;;;;9.33;2.67;;;25.10;75.70;;;;;;5069631;28;20183;-70
2023/02/08 06:43:58;;;;;;;8.37;2.43;;;24.90;77.80;;;;;;5072161;28;20385;-76
2023/02/08 06:46:26;;;;;;;9.73;2.90;;;24.50;80.10;;;;;;5069187;28;20266;-70
2023/02/08 06:48:54;;;;;;;11.77;2.53;;;24.00;82.90;;;;;;5068718;28;20900;-72
2023/02/08 06:51:22;;;;;;;9.23;2.63;;;23.70;84.60;;;;;;5066247;28;20186;-73
2023/02/08 06:53:49;;;;;;;12.07;2.97;;;23.50;85.70;;;;;;5071444;28;20282;-71
2023/02/08 06:56:16;;;;;;;13.90;4.20;;;23.50;86.40;;;;;;5072443;28;20222;-71
2023/02/08 06:58:44;;;;;;;11.00;2.73;;;23.40;86.30;;;;;;5065384;28;20273;-70
2023/02/08 07:01:14;;;;;;;13.17;2.60;;;23.20;86.00;;;;;;5069620;28;20372;-71
2023/02/08 07:03:42;;;;;;;10.80;2.87;;;23.30;86.10;;;;;;5071082;28;20274;-73
2023/02/08 07:06:18;;;;;;;14.57;3.33;;;23.30;86.50;;;;;;5069461;28;20187;-73
2023/02/08 07:08:46;;;;;;;10.23;3.23;;;23.30;86.60;;;;;;5071062;28;20216;-73
2023/02/08 07:11:17;;;;;;;16.57;3.53;;;23.30;86.60;;;;;;5071421;28;20270;-73
2023/02/08 07:13:47;;;;;;;11.27;3.60;;;23.30;86.20;;;;;;5072611;28;20179;-73
2023/02/08 07:16:15;;;;;;;13.63;4.10;;;23.30;85.60;;;;;;5071348;28;20223;-72
2023/02/08 07:18:43;;;;;;;12.80;4.00;;;23.40;85.70;;;;;;5070652;28;20184;-73
2023/02/08 07:21:10;;;;;;;11.60;3.13;;;23.30;85.60;;;;;;5067221;28;20179;-69
2023/02/08 07:23:39;;;;;;;15.57;3.57;;;23.30;85.60;;;;;;5068300;28;20183;-69
2023/02/08 07:26:08;;;;;;;14.50;4.37;;;23.30;85.60;;;;;;5072351;28;20183;-71
2023/02/08 07:28:36;;;;;;;16.77;3.63;;;23.30;85.10;;;;;;5071467;28;20186;-71
2023/02/08 07:31:17;;;;;;;24.27;4.00;;;23.30;84.60;;;;;;5067321;28;20661;-70
2023/02/08 07:33:44;;;;;;;14.20;4.30;;;23.30;85.00;;;;;;5075280;28;20178;-71
2023/02/08 07:36:12;;;;;;;13.33;3.10;;;23.50;85.20;;;;;;5071978;28;20306;-70
2023/02/08 07:38:39;;;;;;;11.97;3.50;;;23.50;84.70;;;;;;5069685;28;20516;-70
2023/02/08 07:41:10;;;;;;;10.30;3.00;;;23.50;84.50;;;;;;5071487;28;20198;-70
2023/02/08 07:43:39;;;;;;;9.57;3.63;;;23.50;83.20;;;;;;5070084;28;20582;-71
2023/02/08 07:46:18;;;;;;;10.50;2.70;;;23.60;83.20;;;;;;5069076;28;20225;-70
2023/02/08 07:48:48;;;;;;;9.43;3.00;;;23.50;82.50;;;;;;5067505;28;20273;-70
2023/02/08 07:51:16;;;;;;;9.93;2.73;;;23.60;82.70;;;;;;5071685;28;20262;-71
2023/02/08 07:53:43;;;;;;;7.30;2.80;;;23.50;81.80;;;;;;5071060;28;20227;-68
2023/02/08 07:56:11;;;;;;;11.53;3.03;;;23.70;81.80;;;;;;5071323;28;20215;-70
2023/02/08 07:58:38;;;;;;;7.43;2.60;;;23.60;81.50;;;;;;5071580;28;20187;-70
2023/02/08 08:01:06;;;;;;;8.37;2.40;;;23.70;80.90;;;;;;5069453;28;20191;-69
2023/02/08 08:03:33;;;;;;;9.70;2.90;;;23.70;81.10;;;;;;5068126;28;20394;-70
2023/02/08 08:06:00;;;;;;;11.77;3.20;;;23.70;80.90;;;;;;5065585;28;20179;-70
2023/02/08 08:08:28;;;;;;;16.00;3.03;;;23.70;80.50;;;;;;5065181;28;20182;-72
2023/02/08 08:10:56;;;;;;;9.30;2.80;;;23.60;80.60;;;;;;5070346;28;20186;-74
2023/02/08 08:13:23;;;;;;;13.90;3.03;;;23.60;80.80;;;;;;5069706;28;20183;-73
2023/02/08 08:15:51;;;;;;;9.37;2.63;;;23.60;80.60;;;;;;5063490;28;20238;-73
2023/02/08 08:18:18;;;;;;;11.80;3.33;;;23.70;81.40;;;;;;5064680;28;20218;-73
2023/02/08 08:20:45;;;;;;;11.23;3.30;;;23.60;80.90;;;;;;5071482;28;20206;-73
2023/02/08 08:23:13;;;;;;;10.77;3.43;;;23.70;81.00;;;;;;5066679;28;20214;-72
2023/02/08 08:25:40;;;;;;;9.27;3.60;;;23.70;81.30;;;;;;5069235;28;20186;-73
2023/02/08 08:28:07;;;;;;;9.50;2.93;;;23.60;80.90;;;;;;5066266;28;20257;-72
2023/02/08 08:30:34;;;;;;;12.93;2.90;;;23.50;81.10;;;;;;5071408;28;20211;-73
2023/02/08 08:33:02;;;;;;;10.10;2.77;;;23.50;80.80;;;;;;5069444;28;20645;-72
2023/02/08 08:35:29;;;;;;;12.37;2.70;;;23.50;80.60;;;;;;5069612;28;20233;-71
2023/02/08 08:37:56;;;;;;;13.33;2.73;;;23.60;80.60;;;;;;5067359;28;20179;-71
2023/02/08 08:40:24;;;;;;;7.27;2.37;;;23.50;80.40;;;;;;5070164;28;20238;-72
2023/02/08 08:42:51;;;;;;;7.33;2.77;;;23.50;80.60;;;;;;5066151;28;20175;-74
2023/02/08 08:45:18;;;;;;;10.43;4.00;;;23.40;80.40;;;;;;5063281;28;20202;-73
2023/02/08 08:47:46;;;;;;;9.33;3.30;;;23.30;80.00;;;;;;5070637;28;20226;-72
2023/02/08 08:50:13;;;;;;;12.37;2.87;;;23.40;80.50;;;;;;5070330;28;20641;-71
2023/02/08 08:52:41;;;;;;;7.73;2.67;;;23.40;80.10;;;;;;5070579;28;20226;-71
2023/02/08 08:55:08;;;;;;;10.37;2.50;;;23.40;79.80;;;;;;5071847;28;20215;-70
2023/02/08 08:57:36;;;;;;;8.70;2.60;;;23.40;79.70;;;;;;5071821;28;20938;-70
2023/02/08 09:00:04;;;;;;;7.30;2.67;;;23.40;80.00;;;;;;5072759;28;20183;-71
2023/02/08 09:02:31;;;;;;;7.97;2.43;;;23.40;79.70;;;;;;5075434;28;20175;-71
2023/02/08 09:04:59;;;;;;;8.97;2.70;;;23.50;79.80;;;;;;5065597;28;20180;-71
2023/02/08 09:07:26;;;;;;;8.60;2.90;;;23.50;79.60;;;;;;5074456;28;20194;-71
2023/02/08 09:09:53;;;;;;;8.53;2.97;;;23.40;79.80;;;;;;5074915;28;20553;-72
2023/02/08 09:12:21;;;;;;;12.00;2.90;;;23.40;79.80;;;;;;5072428;28;20183;-71
2023/02/08 09:14:48;;;;;;;12.63;2.73;;;23.50;80.10;;;;;;5074583;28;20340;-71
2023/02/08 09:17:15;;;;;;;11.67;2.73;;;23.50;80.10;;;;;;5073909;28;20199;-71
2023/02/08 09:19:43;;;;;;;8.53;2.97;;;23.50;79.40;;;;;;5074950;28;20171;-71
2023/02/08 09:22:10;;;;;;;7.13;2.53;;;23.50;79.40;;;;;;5070916;28;20186;-71
2023/02/08 09:24:38;;;;;;;10.70;2.33;;;23.50;78.50;;;;;;5073892;28;20262;-73
2023/02/08 09:27:06;;;;;;;9.60;3.17;;;23.50;78.60;;;;;;5073390;28;20191;-70
2023/02/08 09:29:34;;;;;;;7.07;2.23;;;23.50;78.80;;;;;;5070889;28;20266;-71
2023/02/08 09:32:01;;;;;;;11.93;2.47;;;23.50;78.50;;;;;;5072888;28;20191;-74
2023/02/08 09:34:29;;;;;;;9.10;2.63;;;23.50;78.60;;;;;;5073637;28;20183;-71
2023/02/08 09:36:57;;;;;;;10.30;2.83;;;23.50;78.80;;;;;;5073472;28;20649;-71
2023/02/08 09:39:25;;;;;;;14.70;2.80;;;23.50;78.80;;;;;;5073338;28;20270;-69
2023/02/08 09:42:16;;;;;;;13.57;3.20;;;23.50;78.90;;;;;;5074402;28;20218;-69
2023/02/08 09:44:56;;;;;;;9.40;2.60;;;23.50;78.90;;;;;;5071245;28;20183;-69
2023/02/08 09:47:23;;;;;;;12.80;2.80;;;23.50;78.90;;;;;;5067465;28;20298;-71
2023/02/08 09:50:03;;;;;;;7.43;2.43;;;23.50;79.00;;;;;;5073953;28;20205;-69
2023/02/08 09:53:02;;;;;;;15.83;3.13;;;23.50;79.10;;;;;;5071308;28;20223;-69
2023/02/08 09:55:43;;;;;;;10.20;2.60;;;23.50;79.10;;;;;;5068933;28;20227;-69
2023/02/08 09:58:59;;;;;;;12.13;2.40;;;23.50;79.20;;;;;;5068122;28;20176;-70
2023/02/08 10:01:33;;;;;;;7.73;2.43;;;23.50;78.70;;;;;;5071708;28;20222;-68
2023/02/08 10:04:23;;;;;;;9.27;2.33;;;23.40;78.60;;;;;;5068000;28;20193;-69
2023/02/08 10:06:51;;;;;;;13.10;2.70;;;23.50;78.50;;;;;;5067683;28;20191;-69
2023/02/08 10:09:24;;;;;;;9.47;2.60;;;23.50;78.20;;;;;;5072466;28;20179;-71
2023/02/08 10:12:05;;;;;;;7.80;2.20;;;23.50;78.10;;;;;;5069741;28;20237;-68
2023/02/08 10:14:52;;;;;;;9.87;2.67;;;23.40;77.90;;;;;;5067118;28;20179;-70
2023/02/08 10:18:01;;;;;;;10.03;2.43;;;23.50;77.80;;;;;;5071887;28;20183;-69
2023/02/08 10:20:45;;;;;;;9.30;2.57;;;23.40;77.50;;;;;;5071414;28;20175;-70
2023/02/08 10:23:30;;;;;;;11.13;2.30;;;23.40;77.70;;;;;;5073132;28;20680;-69
2023/02/08 10:26:27;;;;;;;6.87;2.10;;;23.50;78.10;;;;;;5071729;28;20184;-69
2023/02/08 10:29:13;;;;;;;12.50;2.30;;;23.50;77.80;;;;;;5069276;28;20662;-71
2023/02/08 10:31:54;;;;;;;10.53;2.37;;;23.40;77.50;;;;;;5072650;28;20179;-71
2023/02/08 10:34:40;;;;;;;6.90;2.37;;;23.40;77.50;;;;;;5068176;28;20195;-76
2023/02/08 10:37:19;;;;;;;9.37;2.47;;;23.50;77.30;;;;;;5070092;28;20191;-70
2023/02/08 10:39:49;;;;;;;8.00;1.90;;;23.40;77.50;;;;;;5071931;28;20182;-72
2023/02/08 10:42:21;;;;;;;9.47;2.20;;;23.40;77.10;;;;;;5072327;28;20208;-72
2023/02/08 10:45:14;;;;;;;8.73;2.30;;;23.40;77.10;;;;;;5071004;28;20672;-71
2023/02/08 10:47:54;;;;;;;9.93;2.80;;;23.40;77.30;;;;;;5067728;28;20183;-72
2023/02/08 10:50:41;;;;;;;8.33;2.50;;;23.40;77.30;;;;;;5068512;28;20454;-70
2023/02/08 10:53:19;;;;;;;9.03;2.73;;;23.40;77.20;;;;;;5071503;28;20697;-70
2023/02/08 10:55:49;;;;;;;10.93;2.53;;;23.40;77.00;;;;;;5063476;28;20245;-70
2023/02/08 10:58:19;;;;;;;8.13;2.50;;;23.30;77.10;;;;;;5071873;28;20665;-71
2023/02/08 11:00:50;;;;;;;9.27;2.40;;;23.30;77.20;;;;;;5072582;28;20608;-72
2023/02/08 11:03:29;;;;;;;8.80;2.50;;;23.40;77.20;;;;;;5072968;28;20222;-71
2023/02/08 11:05:57;;;;;;;6.77;2.30;;;23.40;77.20;;;;;;5072283;28;20189;-72
2023/02/08 11:08:27;;;;;;;6.97;2.27;;;23.40;77.10;;;;;;5072290;28;20179;-71
2023/02/08 11:11:09;;;;;;;7.73;2.17;;;23.30;77.20;;;;;;5063964;28;20180;-75
2023/02/08 11:13:41;;;;;;;7.83;2.17;;;23.30;77.10;;;;;;5070426;28;20191;-73
2023/02/08 11:16:12;;;;;;;5.93;2.13;;;23.30;76.60;;;;;;5070933;28;20210;-72
2023/02/08 11:18:47;;;;;;;8.83;2.50;;;23.30;76.80;;;;;;5071124;28;20217;-71
2023/02/08 11:21:28;;;;;;;7.27;2.60;;;23.30;77.10;;;;;;5071180;28;20252;-72
2023/02/08 11:23:57;;;;;;;10.83;2.57;;;23.30;77.30;;;;;;5068732;28;20206;-74
2023/02/08 11:26:38;;;;;;;8.87;2.60;;;23.30;77.10;;;;;;5072137;28;20274;-70
2023/02/08 11:29:16;;;;;;;7.70;2.27;;;23.20;77.30;;;;;;5072206;28;20186;-71
2023/02/08 11:32:15;;;;;;;10.23;2.57;;;23.30;77.40;;;;;;5070906;28;20199;-71
2023/02/08 11:34:43;;;;;;;10.33;2.50;;;23.20;77.50;;;;;;5071548;28;20178;-69
2023/02/08 11:37:27;;;;;;;8.77;2.40;;;23.30;77.70;;;;;;5069958;28;20195;-69
2023/02/08 11:40:00;;;;;;;6.77;2.03;;;23.30;77.60;;;;;;5070197;28;20190;-71
2023/02/08 11:42:29;;;;;;;8.47;2.27;;;23.20;77.70;;;;;;5068882;28;20182;-68
2023/02/08 11:44:58;;;;;;;8.27;1.97;;;23.20;77.60;;;;;;5069839;28;20642;-72
2023/02/08 11:47:36;;;;;;;5.80;2.00;;;23.20;77.60;;;;;;5070847;28;20283;-73
2023/02/08 11:50:36;;;;;;;9.73;2.57;;;23.20;77.40;;;;;;5071478;28;20402;-72
2023/02/08 11:53:28;;;;;;;10.03;2.33;;;23.20;77.50;;;;;;5065473;28;20254;-71
2023/02/08 11:56:13;;;;;;;9.70;2.23;;;23.20;77.60;;;;;;5067458;28;20703;-71
2023/02/08 11:59:11;;;;;;;10.50;2.40;;;23.10;77.40;;;;;;5071078;28;20206;-75
2023/02/08 12:01:40;;;;;;;9.70;2.67;;;23.20;77.20;;;;;;5068959;28;20232;-71
2023/02/08 12:04:12;;;;;;;9.30;2.87;;;23.20;77.20;;;;;;5061813;28;20270;-70
2023/02/08 12:07:19;;;;;;;5.23;2.20;;;23.20;77.30;;;;;;5071944;28;20187;-70
2023/02/08 12:10:13;;;;;;;7.53;2.50;;;23.20;77.20;;;;;;5071201;28;20167;-69
2023/02/08 12:12:50;;;;;;;9.53;1.87;;;23.20;77.00;;;;;;5069594;28;20187;-69
2023/02/08 12:15:42;;;;;;;8.57;2.43;;;23.20;77.10;;;;;;5069692;28;20620;-67
2023/02/08 12:18:22;;;;;;;6.47;1.93;;;23.20;77.20;;;;;;5070086;28;20191;-68
2023/02/08 12:21:12;;;;;;;11.20;2.80;;;23.20;77.40;;;;;;5071149;28;20571;-69
2023/02/08 12:23:42;;;;;;;11.30;2.60;;;23.20;77.40;;;;;;5059782;28;20252;-69
2023/02/08 12:26:37;;;;;;;7.13;2.00;;;23.20;77.20;;;;;;5071192;28;20187;-68
2023/02/08 12:29:33;;;;;;;9.63;2.23;;;23.20;77.20;;;;;;5068662;28;20240;-69
2023/02/08 12:32:32;;;;;;;9.60;2.07;;;23.20;76.90;;;;;;5066061;28;20236;-66
2023/02/08 12:35:30;;;;;;;8.63;2.40;;;23.20;77.00;;;;;;5052661;28;20257;-65
2023/02/08 12:41:35;;;;;;;5.47;1.87;;;23.10;76.80;;;;;;5070788;28;20287;-66
2023/02/08 12:44:50;;;;;;;8.07;2.40;;;23.20;77.00;;;;;;5072770;28;20267;-67
2023/02/08 12:47:38;;;;;;;10.37;2.03;;;23.20;77.10;;;;;;5052442;28;20187;-68
2023/02/08 12:50:19;;;;;;;5.70;1.90;;;23.10;76.90;;;;;;5071122;28;20179;-70
2023/02/08 12:53:19;;;;;;;8.93;1.93;;;23.20;76.80;;;;;;5070618;28;21483;-70
2023/02/08 12:55:48;;;;;;;6.80;2.17;;;23.20;76.80;;;;;;5071241;28;20217;-70
2023/02/08 12:58:44;;;;;;;9.20;1.87;;;23.20;76.80;;;;;;5071207;28;20183;-69
2023/02/08 13:01:29;;;;;;;7.63;2.00;;;23.20;76.50;;;;;;5070927;28;20206;-70
2023/02/08 13:04:01;;;;;;;9.17;2.20;;;23.20;76.60;;;;;;5067417;28;20180;-70
2023/02/08 13:07:00;;;;;;;7.97;1.83;;;23.20;76.60;;;;;;5069754;28;20209;-69
2023/02/08 13:09:47;;;;;;;10.63;1.97;;;23.20;76.50;;;;;;5067328;28;20195;-69
2023/02/08 13:12:20;;;;;;;8.13;2.03;;;23.20;76.60;;;;;;5068334;28;20221;-67
2023/02/08 13:14:55;;;;;;;10.03;2.03;;;23.20;76.70;;;;;;5070159;28;20586;-70
2023/02/08 13:17:29;;;;;;;10.33;1.90;;;23.10;76.70;;;;;;5066831;28;20266;-69
2023/02/08 13:20:22;;;;;;;11.50;2.57;;;23.20;76.60;;;;;;5069592;28;20233;-70
2023/02/08 13:22:52;;;;;;;10.23;2.30;;;23.20;76.30;;;;;;5069190;28;20191;-70